createdAt,value
2022-10-21T00:04:03.249Z,7.38
2022-10-21T00:09:05.449Z,6.75
2022-10-21T00:14:06.395Z,6.78
2022-10-21T00:19:07.167Z,6.82
2022-10-21T00:24:09.809Z,7.15
2022-10-21T00:29:10.646Z,6.70
2022-10-21T00:34:11.466Z,6.88
2022-10-21T00:39:13.670Z,6.18
2022-10-21T00:44:16.541Z,7.22
2022-10-21T00:49:20.408Z,7.13
2022-10-21T00:54:25.289Z,6.82
2022-10-21T00:59:30.431Z,7.25
2022-10-21T01:04:31.558Z,7.20
2022-10-21T01:09:33.685Z,6.75
2022-10-21T01:14:48.992Z,6.72
2022-10-21T01:20:18.756Z,7.53
2022-10-21T01:25:54.793Z,7.10
2022-10-21T01:31:00.352Z,7.60
2022-10-21T01:36:14.135Z,6.47
2022-10-21T01:41:20.889Z,7.00
2022-10-21T01:46:28.284Z,7.63
2022-10-21T01:51:29.507Z,7.00
2022-10-21T01:56:31.913Z,7.03
2022-10-21T02:01:36.588Z,7.53
2022-10-21T02:06:37.508Z,6.53
2022-10-21T02:11:41.310Z,7.32
2022-10-21T02:16:45.441Z,6.40
2022-10-21T02:21:48.085Z,6.30
2022-10-21T02:26:48.932Z,6.78
2022-10-21T02:32:03.113Z,7.40
2022-10-21T02:37:15.743Z,7.60
2022-10-21T02:42:24.203Z,7.40
2022-10-21T02:47:27.264Z,8.65
2022-10-21T02:52:28.066Z,7.95
2022-10-21T02:57:28.845Z,8.23
2022-10-21T03:02:30.991Z,9.48
2022-10-21T03:07:31.782Z,8.88
2022-10-21T03:12:32.625Z,8.75
2022-10-21T03:17:34.785Z,8.93
2022-10-21T03:22:35.649Z,8.63
2022-10-21T03:27:36.882Z,8.70
2022-10-21T03:32:39.318Z,8.73
2022-10-21T03:37:40.261Z,8.68
2022-10-21T03:42:41.497Z,8.63
2022-10-21T03:47:43.938Z,9.15
2022-10-21T03:52:44.954Z,9.05
2022-10-21T03:57:45.717Z,8.52
2022-10-21T04:02:48.065Z,9.30
2022-10-21T04:07:50.778Z,9.30
2022-10-21T04:12:53.883Z,10.13
2022-10-21T04:17:56.061Z,9.02
2022-10-21T04:22:56.885Z,9.00
2022-10-21T04:27:57.633Z,9.68
2022-10-21T04:32:59.749Z,9.82
2022-10-21T04:38:01.149Z,10.00
2022-10-21T04:43:02.109Z,9.82
2022-10-21T04:48:04.376Z,9.50
2022-10-21T04:53:05.149Z,10.70
2022-10-21T04:58:05.933Z,9.35
2022-10-21T05:03:08.055Z,10.60
2022-10-21T05:08:11.550Z,10.48
2022-10-21T05:13:12.910Z,9.25
2022-10-21T05:18:15.051Z,9.07
2022-10-21T05:23:15.867Z,9.82
2022-10-21T05:28:16.647Z,9.75
2022-10-21T05:33:18.784Z,9.05
2022-10-21T05:38:19.552Z,9.75
2022-10-21T05:43:20.375Z,9.80
2022-10-21T05:48:22.690Z,9.02
2022-10-21T05:53:24.781Z,10.52
2022-10-21T05:58:26.300Z,9.48
2022-10-21T06:03:30.879Z,10.10
2022-10-21T06:08:34.889Z,10.70
2022-10-21T06:13:36.343Z,9.88
2022-10-21T06:18:38.968Z,10.23
2022-10-21T06:23:41.907Z,10.27
2022-10-21T06:28:44.374Z,9.75
2022-10-21T06:33:46.631Z,9.27
2022-10-21T06:38:47.440Z,9.23
2022-10-21T06:43:48.250Z,9.88
2022-10-21T06:48:50.449Z,9.25
2022-10-21T06:53:55.022Z,8.77
2022-10-21T06:58:58.801Z,9.30
2022-10-21T07:04:01.386Z,10.35
2022-10-21T07:09:02.266Z,9.48
2022-10-21T07:14:03.145Z,9.43
2022-10-21T07:19:06.007Z,8.48
2022-10-21T07:24:07.045Z,8.10
2022-10-21T07:29:07.913Z,8.27
2022-10-21T07:34:13.400Z,8.43
2022-10-21T07:39:16.022Z,8.60
2022-10-21T07:44:17.787Z,8.02
2022-10-21T07:49:21.377Z,7.35
2022-10-21T07:54:22.492Z,7.30
2022-10-21T07:59:24.100Z,7.60
2022-10-21T08:04:29.835Z,7.78
2022-10-21T08:09:36.673Z,7.88
2022-10-21T08:14:37.540Z,8.20
2022-10-21T08:19:39.697Z,8.32
2022-10-21T08:24:42.398Z,8.07
2022-10-21T08:29:43.579Z,7.97
2022-10-21T08:34:45.707Z,7.63
2022-10-21T08:39:46.497Z,8.10
2022-10-21T08:44:55.111Z,8.30
2022-10-21T08:50:01.696Z,7.47
2022-10-21T08:55:04.917Z,7.28
2022-10-21T09:00:15.168Z,7.15
2022-10-21T09:05:38.838Z,7.97
2022-10-21T09:10:53.997Z,7.63
2022-10-21T09:16:05.809Z,8.05
2022-10-21T09:21:14.185Z,7.25
2022-10-21T09:26:30.297Z,7.40
2022-10-21T09:31:31.510Z,7.55
2022-10-21T09:36:37.856Z,7.50
2022-10-21T09:41:42.721Z,7.65
2022-10-21T09:46:46.134Z,7.20
2022-10-21T09:51:49.862Z,7.82
2022-10-21T09:56:57.039Z,6.90
2022-10-21T10:01:58.489Z,7.07
2022-10-21T10:07:02.549Z,7.20
2022-10-21T10:12:06.010Z,7.07
2022-10-21T10:17:29.070Z,7.10
2022-10-21T10:22:31.397Z,6.78
2022-10-21T10:27:32.175Z,6.80
2022-10-21T10:32:36.157Z,6.45
2022-10-21T10:37:39.242Z,7.45
2022-10-21T10:42:46.955Z,6.68
2022-10-21T10:47:49.743Z,6.25
2022-10-21T10:53:25.246Z,6.47
2022-10-21T10:58:29.296Z,7.30
2022-10-21T11:03:41.117Z,7.03
2022-10-21T11:08:49.029Z,6.20
2022-10-21T11:13:49.925Z,7.15
2022-10-21T11:18:58.957Z,7.90
2022-10-21T11:24:27.978Z,8.15
2022-10-21T11:29:40.781Z,9.15
2022-10-21T11:34:51.618Z,8.98
2022-10-21T11:39:59.107Z,8.38
2022-10-21T11:45:16.428Z,8.70
2022-10-21T11:50:26.297Z,8.98
2022-10-21T11:55:39.320Z,10.18
2022-10-21T12:00:50.242Z,11.15
2022-10-21T12:06:01.144Z,10.93
2022-10-21T12:11:09.786Z,13.07
2022-10-21T12:16:14.039Z,12.32
2022-10-21T12:21:18.768Z,11.23
2022-10-21T12:26:25.720Z,10.10
2022-10-21T12:31:38.430Z,10.45
2022-10-21T12:36:45.224Z,10.38
2022-10-21T12:41:48.222Z,10.50
2022-10-21T12:46:52.398Z,11.65
2022-10-21T12:51:58.455Z,11.65
2022-10-21T12:57:03.635Z,13.18
2022-10-21T13:02:21.736Z,15.38
2022-10-21T13:07:37.774Z,16.10
2022-10-21T13:12:40.023Z,20.80
2022-10-21T13:17:52.839Z,22.63
2022-10-21T13:23:01.875Z,23.67
2022-10-21T13:28:19.016Z,24.05
2022-10-21T13:33:22.644Z,25.63
2022-10-21T13:38:25.633Z,27.63
2022-10-21T13:43:30.245Z,25.95
2022-10-21T13:48:31.634Z,27.63
2022-10-21T13:53:36.475Z,26.05
2022-10-21T13:58:40.313Z,24.15
2022-10-21T14:03:42.360Z,23.55
2022-10-21T14:08:45.211Z,23.83
2022-10-21T14:13:49.237Z,23.85
2022-10-21T14:18:50.540Z,20.50
2022-10-21T14:23:52.330Z,19.90
2022-10-21T14:28:55.127Z,20.02
2022-10-21T14:33:56.049Z,18.55
2022-10-21T14:39:00.499Z,19.58
2022-10-21T14:44:09.606Z,18.05
2022-10-21T14:49:23.145Z,18.40
2022-10-21T14:54:31.426Z,18.20
2022-10-21T14:59:40.410Z,17.05
2022-10-21T15:04:44.630Z,16.85
2022-10-21T15:10:15.838Z,17.33
2022-10-21T15:15:53.976Z,17.25
2022-10-21T15:20:58.239Z,18.08
2022-10-21T15:26:03.505Z,17.80
2022-10-21T15:31:09.250Z,19.55
2022-10-21T15:36:11.685Z,18.42
2022-10-21T15:41:14.952Z,17.35
2022-10-21T15:46:17.105Z,17.13
2022-10-21T15:51:17.900Z,17.17
2022-10-21T15:56:20.839Z,15.02
2022-10-21T16:01:23.032Z,14.48
2022-10-21T16:06:24.025Z,14.57
2022-10-21T16:11:34.809Z,14.27
2022-10-21T16:16:46.869Z,14.15
2022-10-21T16:21:47.675Z,13.90
2022-10-21T16:26:50.104Z,15.18
2022-10-21T16:31:52.565Z,16.50
2022-10-21T16:36:53.355Z,17.05
2022-10-21T16:41:54.176Z,17.08
2022-10-21T16:46:56.616Z,19.40
2022-10-21T16:51:57.756Z,18.17
2022-10-21T16:56:59.583Z,16.95
2022-10-21T17:02:02.709Z,18.80
2022-10-21T17:07:03.706Z,18.40
2022-10-21T17:12:05.373Z,17.42
2022-10-21T17:17:07.530Z,17.75
2022-10-21T17:22:08.398Z,17.50
2022-10-21T17:27:09.205Z,18.25
2022-10-21T17:32:13.423Z,17.02
2022-10-21T17:37:14.207Z,16.38
2022-10-21T17:42:17.085Z,15.50
2022-10-21T17:47:19.201Z,14.90
2022-10-21T17:52:19.973Z,16.42
2022-10-21T17:57:20.759Z,16.33
2022-10-21T18:02:23.127Z,15.82
2022-10-21T18:07:24.529Z,17.42
2022-10-21T18:12:26.045Z,17.15
2022-10-21T18:17:28.250Z,16.40
2022-10-21T18:22:29.089Z,18.17
2022-10-21T18:27:29.891Z,19.52
2022-10-21T18:32:32.237Z,20.60
2022-10-21T18:37:34.025Z,19.83
2022-10-21T18:42:34.806Z,20.85
2022-10-21T18:47:37.326Z,18.40
2022-10-21T18:52:38.292Z,21.67
2022-10-21T18:57:39.578Z,19.90
2022-10-21T19:02:41.885Z,21.08
2022-10-21T19:07:42.920Z,21.27
2022-10-21T19:12:44.383Z,22.42
2022-10-21T19:17:48.188Z,21.02
2022-10-21T19:22:50.481Z,20.48
2022-10-21T19:27:51.469Z,21.80
2022-10-21T19:32:53.628Z,19.88
2022-10-21T19:37:59.047Z,21.52
2022-10-21T19:43:02.736Z,21.33
2022-10-21T19:48:05.181Z,20.00
2022-10-21T19:53:05.926Z,21.52
2022-10-21T19:58:06.780Z,19.85
2022-10-21T20:03:09.099Z,21.25
2022-10-21T20:08:11.230Z,20.38
2022-10-21T20:13:12.042Z,20.35
2022-10-21T20:18:14.721Z,21.50
2022-10-21T20:23:15.879Z,20.88
2022-10-21T20:28:18.762Z,20.38
2022-10-21T20:33:21.045Z,21.55
2022-10-21T20:38:21.983Z,21.85
2022-10-21T20:43:22.966Z,21.67
2022-10-21T20:48:25.226Z,23.30
2022-10-21T20:53:31.018Z,22.83
2022-10-21T20:58:35.337Z,20.65
2022-10-21T21:03:39.179Z,21.90
2022-10-21T21:08:49.068Z,20.65
2022-10-21T21:13:59.742Z,21.95
2022-10-21T21:19:03.908Z,21.60
2022-10-21T21:24:05.332Z,22.33
2022-10-21T21:29:07.884Z,21.73
2022-10-21T21:34:11.418Z,23.25
2022-10-21T21:44:19.247Z,22.60
2022-10-21T21:49:21.474Z,24.80
2022-10-21T21:54:22.348Z,24.45
2022-10-21T21:59:24.011Z,25.23
2022-10-21T22:04:26.165Z,25.42
2022-10-21T22:09:26.960Z,23.20
2022-10-21T22:14:27.759Z,23.33
2022-10-21T22:19:30.110Z,25.23
2022-10-21T22:29:38.633Z,24.75
2022-10-21T22:34:41.087Z,22.80
2022-10-21T22:39:41.901Z,23.02
2022-10-21T22:44:42.739Z,24.85
2022-10-21T22:49:44.884Z,23.08
2022-10-21T22:54:49.506Z,22.42
2022-10-21T22:59:53.487Z,22.23
2022-10-21T23:04:55.852Z,23.25
2022-10-21T23:09:56.854Z,22.15
2022-10-21T23:14:57.732Z,23.60
2022-10-21T23:20:00.003Z,22.35
2022-10-21T23:25:00.789Z,25.17
2022-10-21T23:30:01.568Z,23.65
2022-10-21T23:35:03.917Z,24.33
2022-10-21T23:40:05.225Z,23.48
2022-10-21T23:45:06.969Z,22.80
2022-10-21T23:50:10.810Z,24.20
2022-10-21T23:55:11.798Z,24.02
